sensor_id;sensor_type;location;lat;lon;timestamp;P1;durP1;ratioP1;P2;durP2;ratioP2
72569;SDS011;60594;50.204;8.844;2022-09-21T00:00:09;4.45;;;2.30;;
72569;SDS011;60594;50.204;8.844;2022-09-21T00:02:56;4.20;;;2.03;;
72569;SDS011;60594;50.204;8.844;2022-09-21T00:05:23;3.65;;;2.15;;
72569;SDS011;60594;50.204;8.844;2022-09-21T00:07:49;4.00;;;2.40;;
72569;SDS011;60594;50.204;8.844;2022-09-21T00:10:17;4.38;;;1.85;;
72569;SDS011;60594;50.204;8.844;2022-09-21T00:12:45;4.20;;;2.13;;
72569;SDS011;60594;50.204;8.844;2022-09-21T00:15:13;4.07;;;2.55;;
72569;SDS011;60594;50.204;8.844;2022-09-21T00:17:45;5.68;;;2.70;;
72569;SDS011;60594;50.204;8.844;2022-09-21T00:20:13;4.50;;;2.47;;
72569;SDS011;60594;50.204;8.844;2022-09-21T00:22:40;4.95;;;2.45;;
72569;SDS011;60594;50.204;8.844;2022-09-21T00:25:07;7.03;;;2.47;;
72569;SDS011;60594;50.204;8.844;2022-09-21T00:27:34;4.65;;;2.53;;
72569;SDS011;60594;50.204;8.844;2022-09-21T00:30:00;4.22;;;2.33;;
72569;SDS011;60594;50.204;8.844;2022-09-21T00:32:30;4.70;;;2.15;;
72569;SDS011;60594;50.204;8.844;2022-09-21T00:34:57;3.90;;;2.00;;
72569;SDS011;60594;50.204;8.844;2022-09-21T00:37:23;6.03;;;2.70;;
72569;SDS011;60594;50.204;8.844;2022-09-21T00:39:49;3.75;;;2.25;;
72569;SDS011;60594;50.204;8.844;2022-09-21T00:42:17;4.65;;;1.90;;
72569;SDS011;60594;50.204;8.844;2022-09-21T00:44:46;5.05;;;2.72;;
72569;SDS011;60594;50.204;8.844;2022-09-21T00:47:13;6.15;;;2.50;;
72569;SDS011;60594;50.204;8.844;2022-09-21T00:49:43;5.20;;;2.92;;
72569;SDS011;60594;50.204;8.844;2022-09-21T00:52:12;4.18;;;2.28;;
72569;SDS011;60594;50.204;8.844;2022-09-21T00:54:41;5.25;;;2.80;;
72569;SDS011;60594;50.204;8.844;2022-09-21T00:57:16;4.70;;;2.47;;
72569;SDS011;60594;50.204;8.844;2022-09-21T00:59:47;4.75;;;2.42;;
72569;SDS011;60594;50.204;8.844;2022-09-21T01:02:16;5.40;;;2.47;;
72569;SDS011;60594;50.204;8.844;2022-09-21T01:04:43;5.78;;;2.63;;
72569;SDS011;60594;50.204;8.844;2022-09-21T01:07:12;4.18;;;1.88;;
72569;SDS011;60594;50.204;8.844;2022-09-21T01:09:44;4.15;;;2.20;;
72569;SDS011;60594;50.204;8.844;2022-09-21T01:15:14;4.13;;;2.03;;
72569;SDS011;60594;50.204;8.844;2022-09-21T01:18:36;4.03;;;2.20;;
72569;SDS011;60594;50.204;8.844;2022-09-21T01:20:52;4.43;;;2.60;;
72569;SDS011;60594;50.204;8.844;2022-09-21T01:23:53;5.13;;;1.95;;
72569;SDS011;60594;50.204;8.844;2022-09-21T01:29:51;3.28;;;1.67;;
72569;SDS011;60594;50.204;8.844;2022-09-21T01:32:38;4.22;;;2.00;;
72569;SDS011;60594;50.204;8.844;2022-09-21T01:35:13;3.90;;;2.00;;
72569;SDS011;60594;50.204;8.844;2022-09-21T01:37:43;4.00;;;2.40;;
72569;SDS011;60594;50.204;8.844;2022-09-21T01:40:15;4.68;;;2.67;;
72569;SDS011;60594;50.204;8.844;2022-09-21T01:42:45;4.75;;;2.08;;
72569;SDS011;60594;50.204;8.844;2022-09-21T01:45:15;5.45;;;2.47;;
72569;SDS011;60594;50.204;8.844;2022-09-21T01:47:46;3.90;;;1.85;;
72569;SDS011;60594;50.204;8.844;2022-09-21T01:50:22;4.57;;;1.83;;
72569;SDS011;60594;50.204;8.844;2022-09-21T01:52:53;4.13;;;2.30;;
72569;SDS011;60594;50.204;8.844;2022-09-21T01:55:26;4.40;;;2.20;;
72569;SDS011;60594;50.204;8.844;2022-09-21T02:00:53;6.05;;;2.38;;
72569;SDS011;60594;50.204;8.844;2022-09-21T02:03:28;4.30;;;2.40;;
72569;SDS011;60594;50.204;8.844;2022-09-21T02:06:00;3.35;;;1.80;;
72569;SDS011;60594;50.204;8.844;2022-09-21T02:08:29;3.97;;;2.08;;
72569;SDS011;60594;50.204;8.844;2022-09-21T02:11:00;4.72;;;1.95;;
72569;SDS011;60594;50.204;8.844;2022-09-21T02:13:28;6.05;;;2.10;;
72569;SDS011;60594;50.204;8.844;2022-09-21T02:18:42;4.88;;;2.40;;
72569;SDS011;60594;50.204;8.844;2022-09-21T02:24:13;5.38;;;3.22;;
72569;SDS011;60594;50.204;8.844;2022-09-21T02:27:05;7.55;;;3.00;;
72569;SDS011;60594;50.204;8.844;2022-09-21T02:30:02;5.68;;;2.95;;
72569;SDS011;60594;50.204;8.844;2022-09-21T02:32:39;3.83;;;2.10;;
72569;SDS011;60594;50.204;8.844;2022-09-21T02:38:08;4.93;;;2.50;;
72569;SDS011;60594;50.204;8.844;2022-09-21T02:46:25;7.55;;;2.40;;
72569;SDS011;60594;50.204;8.844;2022-09-21T02:49:06;4.53;;;2.40;;
72569;SDS011;60594;50.204;8.844;2022-09-21T02:51:43;4.50;;;2.38;;
72569;SDS011;60594;50.204;8.844;2022-09-21T02:54:13;6.40;;;2.63;;
72569;SDS011;60594;50.204;8.844;2022-09-21T02:56:43;3.97;;;2.28;;
72569;SDS011;60594;50.204;8.844;2022-09-21T02:59:12;6.78;;;3.05;;
72569;SDS011;60594;50.204;8.844;2022-09-21T03:01:39;4.72;;;2.85;;
72569;SDS011;60594;50.204;8.844;2022-09-21T03:04:06;7.57;;;3.30;;
72569;SDS011;60594;50.204;8.844;2022-09-21T03:06:32;4.78;;;2.25;;
72569;SDS011;60594;50.204;8.844;2022-09-21T03:08:59;4.57;;;2.63;;
72569;SDS011;60594;50.204;8.844;2022-09-21T03:11:26;5.45;;;2.80;;
72569;SDS011;60594;50.204;8.844;2022-09-21T03:13:52;4.72;;;2.10;;
72569;SDS011;60594;50.204;8.844;2022-09-21T03:16:18;5.45;;;2.63;;
72569;SDS011;60594;50.204;8.844;2022-09-21T03:18:45;5.38;;;2.17;;
72569;SDS011;60594;50.204;8.844;2022-09-21T03:21:11;3.70;;;1.92;;
72569;SDS011;60594;50.204;8.844;2022-09-21T03:23:37;5.40;;;3.03;;
72569;SDS011;60594;50.204;8.844;2022-09-21T03:26:05;7.97;;;2.97;;
72569;SDS011;60594;50.204;8.844;2022-09-21T03:28:31;5.03;;;3.05;;
72569;SDS011;60594;50.204;8.844;2022-09-21T03:30:57;5.85;;;2.85;;
72569;SDS011;60594;50.204;8.844;2022-09-21T03:33:24;4.97;;;2.92;;
72569;SDS011;60594;50.204;8.844;2022-09-21T03:35:50;10.45;;;3.15;;
72569;SDS011;60594;50.204;8.844;2022-09-21T03:38:18;5.85;;;2.90;;
72569;SDS011;60594;50.204;8.844;2022-09-21T03:40:46;6.53;;;2.72;;
72569;SDS011;60594;50.204;8.844;2022-09-21T03:43:14;5.43;;;2.95;;
72569;SDS011;60594;50.204;8.844;2022-09-21T03:45:41;4.80;;;2.47;;
72569;SDS011;60594;50.204;8.844;2022-09-21T03:48:08;5.15;;;2.63;;
72569;SDS011;60594;50.204;8.844;2022-09-21T03:50:36;5.57;;;2.92;;
72569;SDS011;60594;50.204;8.844;2022-09-21T03:53:02;5.80;;;3.28;;
72569;SDS011;60594;50.204;8.844;2022-09-21T03:55:29;7.50;;;3.33;;
72569;SDS011;60594;50.204;8.844;2022-09-21T03:57:56;5.43;;;2.78;;
72569;SDS011;60594;50.204;8.844;2022-09-21T04:00:22;5.10;;;3.25;;
72569;SDS011;60594;50.204;8.844;2022-09-21T04:02:48;5.57;;;2.58;;
72569;SDS011;60594;50.204;8.844;2022-09-21T04:05:15;5.47;;;2.58;;
72569;SDS011;60594;50.204;8.844;2022-09-21T04:07:42;4.82;;;2.72;;
72569;SDS011;60594;50.204;8.844;2022-09-21T04:10:11;7.97;;;3.55;;
72569;SDS011;60594;50.204;8.844;2022-09-21T04:15:12;4.97;;;2.70;;
72569;SDS011;60594;50.204;8.844;2022-09-21T04:17:40;5.90;;;3.30;;
72569;SDS011;60594;50.204;8.844;2022-09-21T04:20:06;5.55;;;2.75;;
72569;SDS011;60594;50.204;8.844;2022-09-21T04:22:34;4.97;;;3.20;;
72569;SDS011;60594;50.204;8.844;2022-09-21T04:25:02;5.80;;;2.90;;
72569;SDS011;60594;50.204;8.844;2022-09-21T04:27:30;7.40;;;3.20;;
72569;SDS011;60594;50.204;8.844;2022-09-21T04:29:57;6.45;;;3.58;;
72569;SDS011;60594;50.204;8.844;2022-09-21T04:32:24;5.55;;;2.53;;
72569;SDS011;60594;50.204;8.844;2022-09-21T04:34:51;5.72;;;2.60;;
72569;SDS011;60594;50.204;8.844;2022-09-21T04:37:17;5.15;;;2.70;;
72569;SDS011;60594;50.204;8.844;2022-09-21T04:39:44;6.05;;;2.75;;
72569;SDS011;60594;50.204;8.844;2022-09-21T04:42:10;5.80;;;3.33;;
72569;SDS011;60594;50.204;8.844;2022-09-21T04:44:36;5.70;;;3.08;;
72569;SDS011;60594;50.204;8.844;2022-09-21T04:47:03;5.35;;;2.88;;
72569;SDS011;60594;50.204;8.844;2022-09-21T04:49:29;5.00;;;2.90;;
72569;SDS011;60594;50.204;8.844;2022-09-21T04:51:55;5.78;;;2.72;;
72569;SDS011;60594;50.204;8.844;2022-09-21T04:54:22;5.28;;;2.70;;
72569;SDS011;60594;50.204;8.844;2022-09-21T04:56:48;7.88;;;2.90;;
72569;SDS011;60594;50.204;8.844;2022-09-21T04:59:15;6.00;;;2.78;;
72569;SDS011;60594;50.204;8.844;2022-09-21T05:01:41;7.00;;;2.42;;
72569;SDS011;60594;50.204;8.844;2022-09-21T05:04:07;4.05;;;2.22;;
72569;SDS011;60594;50.204;8.844;2022-09-21T05:06:33;3.72;;;1.90;;
72569;SDS011;60594;50.204;8.844;2022-09-21T05:09:00;5.22;;;2.55;;
72569;SDS011;60594;50.204;8.844;2022-09-21T05:11:45;4.72;;;2.28;;
72569;SDS011;60594;50.204;8.844;2022-09-21T05:14:12;3.22;;;1.90;;
72569;SDS011;60594;50.204;8.844;2022-09-21T05:16:38;3.95;;;2.05;;
72569;SDS011;60594;50.204;8.844;2022-09-21T05:19:08;5.72;;;2.63;;
72569;SDS011;60594;50.204;8.844;2022-09-21T05:21:34;4.18;;;2.17;;
72569;SDS011;60594;50.204;8.844;2022-09-21T05:24:02;4.45;;;2.30;;
72569;SDS011;60594;50.204;8.844;2022-09-21T05:26:29;4.85;;;2.25;;
72569;SDS011;60594;50.204;8.844;2022-09-21T05:28:56;4.13;;;2.17;;
72569;SDS011;60594;50.204;8.844;2022-09-21T05:31:26;7.43;;;2.33;;
72569;SDS011;60594;50.204;8.844;2022-09-21T05:36:56;4.63;;;2.72;;
72569;SDS011;60594;50.204;8.844;2022-09-21T05:39:27;4.93;;;2.45;;
72569;SDS011;60594;50.204;8.844;2022-09-21T05:41:54;6.60;;;2.58;;
72569;SDS011;60594;50.204;8.844;2022-09-21T05:44:21;5.05;;;2.35;;
72569;SDS011;60594;50.204;8.844;2022-09-21T05:46:49;7.13;;;3.00;;
72569;SDS011;60594;50.204;8.844;2022-09-21T05:49:18;5.40;;;2.55;;
72569;SDS011;60594;50.204;8.844;2022-09-21T05:51:53;5.47;;;2.65;;
72569;SDS011;60594;50.204;8.844;2022-09-21T06:02:56;4.97;;;2.80;;
72569;SDS011;60594;50.204;8.844;2022-09-21T06:05:43;6.45;;;3.10;;
72569;SDS011;60594;50.204;8.844;2022-09-21T06:08:10;5.05;;;2.53;;
72569;SDS011;60594;50.204;8.844;2022-09-21T06:10:38;5.20;;;2.63;;
72569;SDS011;60594;50.204;8.844;2022-09-21T06:13:04;5.40;;;2.83;;
72569;SDS011;60594;50.204;8.844;2022-09-21T06:15:32;8.60;;;3.05;;
72569;SDS011;60594;50.204;8.844;2022-09-21T06:18:04;3.88;;;2.53;;
72569;SDS011;60594;50.204;8.844;2022-09-21T06:20:31;10.48;;;3.10;;
72569;SDS011;60594;50.204;8.844;2022-09-21T06:23:01;4.60;;;2.58;;
72569;SDS011;60594;50.204;8.844;2022-09-21T06:25:36;5.25;;;2.63;;
72569;SDS011;60594;50.204;8.844;2022-09-21T06:28:08;5.40;;;2.55;;
72569;SDS011;60594;50.204;8.844;2022-09-21T06:30:36;5.47;;;2.33;;
72569;SDS011;60594;50.204;8.844;2022-09-21T06:33:04;7.10;;;3.13;;
72569;SDS011;60594;50.204;8.844;2022-09-21T06:35:33;5.28;;;2.58;;
72569;SDS011;60594;50.204;8.844;2022-09-21T06:40:28;4.60;;;2.10;;
72569;SDS011;60594;50.204;8.844;2022-09-21T06:42:56;6.57;;;2.75;;
72569;SDS011;60594;50.204;8.844;2022-09-21T06:45:24;5.43;;;2.50;;
72569;SDS011;60594;50.204;8.844;2022-09-21T06:47:51;5.03;;;2.45;;
72569;SDS011;60594;50.204;8.844;2022-09-21T06:50:18;4.30;;;2.25;;
72569;SDS011;60594;50.204;8.844;2022-09-21T06:52:45;5.50;;;2.80;;
72569;SDS011;60594;50.204;8.844;2022-09-21T06:55:12;4.57;;;1.85;;
72569;SDS011;60594;50.204;8.844;2022-09-21T06:57:40;5.70;;;2.92;;
72569;SDS011;60594;50.204;8.844;2022-09-21T07:00:08;5.75;;;3.03;;
72569;SDS011;60594;50.204;8.844;2022-09-21T07:02:36;5.03;;;2.65;;
72569;SDS011;60594;50.204;8.844;2022-09-21T07:05:03;4.78;;;2.47;;
72569;SDS011;60594;50.204;8.844;2022-09-21T07:07:30;4.93;;;2.40;;
72569;SDS011;60594;50.204;8.844;2022-09-21T07:09:57;5.88;;;2.63;;
72569;SDS011;60594;50.204;8.844;2022-09-21T07:12:29;5.18;;;2.72;;
72569;SDS011;60594;50.204;8.844;2022-09-21T07:15:00;5.45;;;2.72;;
72569;SDS011;60594;50.204;8.844;2022-09-21T07:17:31;4.82;;;2.85;;
72569;SDS011;60594;50.204;8.844;2022-09-21T07:19:58;4.85;;;2.75;;
72569;SDS011;60594;50.204;8.844;2022-09-21T07:22:27;5.28;;;2.58;;
72569;SDS011;60594;50.204;8.844;2022-09-21T07:24:58;4.60;;;2.53;;
72569;SDS011;60594;50.204;8.844;2022-09-21T07:27:25;7.40;;;3.08;;
72569;SDS011;60594;50.204;8.844;2022-09-21T07:32:20;4.90;;;2.78;;
72569;SDS011;60594;50.204;8.844;2022-09-21T07:34:47;4.88;;;2.70;;
72569;SDS011;60594;50.204;8.844;2022-09-21T07:37:14;5.25;;;2.75;;
72569;SDS011;60594;50.204;8.844;2022-09-21T07:39:41;5.97;;;2.63;;
72569;SDS011;60594;50.204;8.844;2022-09-21T07:42:07;6.22;;;2.95;;
72569;SDS011;60594;50.204;8.844;2022-09-21T07:44:34;5.38;;;3.05;;
72569;SDS011;60594;50.204;8.844;2022-09-21T07:47:00;5.30;;;3.17;;
72569;SDS011;60594;50.204;8.844;2022-09-21T07:49:28;4.78;;;2.38;;
72569;SDS011;60594;50.204;8.844;2022-09-21T07:51:54;6.07;;;2.83;;
72569;SDS011;60594;50.204;8.844;2022-09-21T07:54:22;5.80;;;2.60;;
72569;SDS011;60594;50.204;8.844;2022-09-21T07:56:49;4.32;;;2.75;;
72569;SDS011;60594;50.204;8.844;2022-09-21T07:59:34;6.20;;;2.75;;
72569;SDS011;60594;50.204;8.844;2022-09-21T08:02:00;4.43;;;2.58;;
72569;SDS011;60594;50.204;8.844;2022-09-21T08:04:26;5.13;;;2.58;;
72569;SDS011;60594;50.204;8.844;2022-09-21T08:06:52;4.57;;;2.55;;
72569;SDS011;60594;50.204;8.844;2022-09-21T08:09:19;5.72;;;2.42;;
72569;SDS011;60594;50.204;8.844;2022-09-21T08:11:45;5.72;;;2.90;;
72569;SDS011;60594;50.204;8.844;2022-09-21T08:14:12;6.05;;;2.90;;
72569;SDS011;60594;50.204;8.844;2022-09-21T08:16:47;5.30;;;2.22;;
72569;SDS011;60594;50.204;8.844;2022-09-21T08:19:13;5.05;;;2.67;;
72569;SDS011;60594;50.204;8.844;2022-09-21T08:21:42;6.82;;;2.83;;
72569;SDS011;60594;50.204;8.844;2022-09-21T08:24:08;5.55;;;3.03;;
72569;SDS011;60594;50.204;8.844;2022-09-21T08:26:36;6.78;;;2.67;;
72569;SDS011;60594;50.204;8.844;2022-09-21T08:29:03;4.75;;;2.60;;
72569;SDS011;60594;50.204;8.844;2022-09-21T08:31:29;4.72;;;2.17;;
72569;SDS011;60594;50.204;8.844;2022-09-21T08:33:56;4.22;;;2.28;;
72569;SDS011;60594;50.204;8.844;2022-09-21T08:36:22;4.47;;;2.55;;
72569;SDS011;60594;50.204;8.844;2022-09-21T08:38:49;4.72;;;2.28;;
72569;SDS011;60594;50.204;8.844;2022-09-21T08:44:14;6.32;;;2.08;;
72569;SDS011;60594;50.204;8.844;2022-09-21T08:46:45;6.57;;;2.15;;
72569;SDS011;60594;50.204;8.844;2022-09-21T08:49:18;3.53;;;1.98;;
72569;SDS011;60594;50.204;8.844;2022-09-21T08:51:50;5.70;;;2.33;;
72569;SDS011;60594;50.204;8.844;2022-09-21T08:56:55;4.95;;;2.30;;
72569;SDS011;60594;50.204;8.844;2022-09-21T08:59:21;4.75;;;2.25;;
72569;SDS011;60594;50.204;8.844;2022-09-21T09:10:17;3.42;;;1.92;;
72569;SDS011;60594;50.204;8.844;2022-09-21T09:13:00;7.45;;;2.10;;
72569;SDS011;60594;50.204;8.844;2022-09-21T09:15:34;3.35;;;1.48;;
72569;SDS011;60594;50.204;8.844;2022-09-21T09:18:09;4.10;;;1.83;;
72569;SDS011;60594;50.204;8.844;2022-09-21T09:20:47;4.47;;;1.73;;
72569;SDS011;60594;50.204;8.844;2022-09-21T09:23:23;5.05;;;2.15;;
72569;SDS011;60594;50.204;8.844;2022-09-21T09:25:57;4.10;;;1.60;;
72569;SDS011;60594;50.204;8.844;2022-09-21T09:31:17;4.07;;;1.90;;
72569;SDS011;60594;50.204;8.844;2022-09-21T09:36:36;4.75;;;1.50;;
72569;SDS011;60594;50.204;8.844;2022-09-21T09:39:14;2.83;;;1.13;;
72569;SDS011;60594;50.204;8.844;2022-09-21T09:50:09;3.60;;;1.65;;
72569;SDS011;60594;50.204;8.844;2022-09-21T09:52:40;4.70;;;1.30;;
72569;SDS011;60594;50.204;8.844;2022-09-21T09:55:14;3.00;;;1.30;;
72569;SDS011;60594;50.204;8.844;2022-09-21T09:57:45;2.70;;;1.23;;
72569;SDS011;60594;50.204;8.844;2022-09-21T10:00:13;3.42;;;1.00;;
72569;SDS011;60594;50.204;8.844;2022-09-21T10:07:45;4.40;;;1.02;;
72569;SDS011;60594;50.204;8.844;2022-09-21T10:13:05;4.00;;;1.63;;
72569;SDS011;60594;50.204;8.844;2022-09-21T10:15:34;3.45;;;1.30;;
72569;SDS011;60594;50.204;8.844;2022-09-21T10:20:57;3.65;;;1.38;;
72569;SDS011;60594;50.204;8.844;2022-09-21T10:23:28;3.38;;;1.52;;
72569;SDS011;60594;50.204;8.844;2022-09-21T10:25:59;4.43;;;1.40;;
72569;SDS011;60594;50.204;8.844;2022-09-21T10:28:33;4.22;;;1.25;;
72569;SDS011;60594;50.204;8.844;2022-09-21T10:33:48;2.75;;;1.63;;
72569;SDS011;60594;50.204;8.844;2022-09-21T10:36:23;3.00;;;1.30;;
72569;SDS011;60594;50.204;8.844;2022-09-21T10:38:52;2.45;;;1.15;;
72569;SDS011;60594;50.204;8.844;2022-09-21T10:41:18;3.13;;;1.25;;
72569;SDS011;60594;50.204;8.844;2022-09-21T10:43:44;3.65;;;1.05;;
72569;SDS011;60594;50.204;8.844;2022-09-21T10:46:11;2.50;;;1.10;;
72569;SDS011;60594;50.204;8.844;2022-09-21T10:48:44;3.80;;;1.10;;
72569;SDS011;60594;50.204;8.844;2022-09-21T10:51:19;4.47;;;1.15;;
72569;SDS011;60594;50.204;8.844;2022-09-21T10:53:54;2.63;;;0.82;;
72569;SDS011;60594;50.204;8.844;2022-09-21T10:56:23;3.00;;;1.20;;
72569;SDS011;60594;50.204;8.844;2022-09-21T11:01:58;2.67;;;1.13;;
72569;SDS011;60594;50.204;8.844;2022-09-21T11:04:37;3.53;;;1.02;;
72569;SDS011;60594;50.204;8.844;2022-09-21T11:10:07;2.75;;;0.90;;
72569;SDS011;60594;50.204;8.844;2022-09-21T11:15:39;1.80;;;0.93;;
72569;SDS011;60594;50.204;8.844;2022-09-21T11:18:17;2.85;;;0.90;;
72569;SDS011;60594;50.204;8.844;2022-09-21T11:20:55;2.10;;;1.00;;
72569;SDS011;60594;50.204;8.844;2022-09-21T11:23:46;2.75;;;1.13;;
72569;SDS011;60594;50.204;8.844;2022-09-21T11:26:26;2.35;;;1.00;;
72569;SDS011;60594;50.204;8.844;2022-09-21T11:29:02;4.15;;;1.27;;
72569;SDS011;60594;50.204;8.844;2022-09-21T11:37:36;2.95;;;1.00;;
72569;SDS011;60594;50.204;8.844;2022-09-21T11:57:24;1.92;;;0.90;;
72569;SDS011;60594;50.204;8.844;2022-09-21T12:08:17;3.55;;;1.25;;
72569;SDS011;60594;50.204;8.844;2022-09-21T12:14:51;4.60;;;1.05;;
72569;SDS011;60594;50.204;8.844;2022-09-21T12:17:12;2.83;;;1.63;;
72569;SDS011;60594;50.204;8.844;2022-09-21T12:22:32;2.42;;;1.27;;
72569;SDS011;60594;50.204;8.844;2022-09-21T12:25:13;3.20;;;0.90;;
72569;SDS011;60594;50.204;8.844;2022-09-21T12:27:46;2.47;;;0.90;;
72569;SDS011;60594;50.204;8.844;2022-09-21T12:30:20;4.00;;;1.30;;
72569;SDS011;60594;50.204;8.844;2022-09-21T12:35:24;2.08;;;0.88;;
72569;SDS011;60594;50.204;8.844;2022-09-21T12:37:56;2.97;;;1.40;;
72569;SDS011;60594;50.204;8.844;2022-09-21T12:48:46;2.92;;;1.02;;
72569;SDS011;60594;50.204;8.844;2022-09-21T12:51:17;1.90;;;0.80;;
72569;SDS011;60594;50.204;8.844;2022-09-21T12:53:56;3.08;;;1.02;;
72569;SDS011;60594;50.204;8.844;2022-09-21T12:56:31;2.67;;;0.82;;
72569;SDS011;60594;50.204;8.844;2022-09-21T13:04:47;3.25;;;1.20;;
72569;SDS011;60594;50.204;8.844;2022-09-21T13:07:42;2.42;;;0.90;;
72569;SDS011;60594;50.204;8.844;2022-09-21T13:13:15;1.33;;;0.73;;
72569;SDS011;60594;50.204;8.844;2022-09-21T13:15:45;1.65;;;0.70;;
72569;SDS011;60594;50.204;8.844;2022-09-21T13:18:17;1.77;;;0.80;;
72569;SDS011;60594;50.204;8.844;2022-09-21T13:20:46;1.05;;;0.50;;
72569;SDS011;60594;50.204;8.844;2022-09-21T13:23:15;2.42;;;0.63;;
72569;SDS011;60594;50.204;8.844;2022-09-21T13:25:47;1.75;;;0.60;;
72569;SDS011;60594;50.204;8.844;2022-09-21T13:28:23;3.00;;;0.90;;
72569;SDS011;60594;50.204;8.844;2022-09-21T13:34:46;1.85;;;0.55;;
72569;SDS011;60594;50.204;8.844;2022-09-21T13:36:44;1.40;;;0.50;;
72569;SDS011;60594;50.204;8.844;2022-09-21T13:39:14;2.08;;;0.73;;
72569;SDS011;60594;50.204;8.844;2022-09-21T13:41:43;1.92;;;0.73;;
72569;SDS011;60594;50.204;8.844;2022-09-21T13:47:08;1.60;;;0.68;;
72569;SDS011;60594;50.204;8.844;2022-09-21T13:49:41;1.75;;;0.80;;
72569;SDS011;60594;50.204;8.844;2022-09-21T14:02:44;1.58;;;0.82;;
72569;SDS011;60594;50.204;8.844;2022-09-21T14:08:20;1.15;;;0.65;;
72569;SDS011;60594;50.204;8.844;2022-09-21T14:15:49;1.63;;;0.60;;
72569;SDS011;60594;50.204;8.844;2022-09-21T14:23:34;2.22;;;0.77;;
72569;SDS011;60594;50.204;8.844;2022-09-21T14:26:31;1.30;;;0.57;;
72569;SDS011;60594;50.204;8.844;2022-09-21T14:29:07;1.23;;;0.70;;
72569;SDS011;60594;50.204;8.844;2022-09-21T14:31:42;2.70;;;0.68;;
72569;SDS011;60594;50.204;8.844;2022-09-21T14:34:11;1.38;;;0.60;;
72569;SDS011;60594;50.204;8.844;2022-09-21T14:36:49;2.10;;;0.60;;
72569;SDS011;60594;50.204;8.844;2022-09-21T14:39:22;1.65;;;0.82;;
72569;SDS011;60594;50.204;8.844;2022-09-21T14:41:54;1.67;;;0.75;;
72569;SDS011;60594;50.204;8.844;2022-09-21T14:44:24;1.80;;;0.70;;
72569;SDS011;60594;50.204;8.844;2022-09-21T14:52:48;1.23;;;1.10;;
72569;SDS011;60594;50.204;8.844;2022-09-21T15:04:00;1.35;;;0.73;;
72569;SDS011;60594;50.204;8.844;2022-09-21T15:06:30;1.20;;;0.70;;
72569;SDS011;60594;50.204;8.844;2022-09-21T15:09:34;1.17;;;0.70;;
72569;SDS011;60594;50.204;8.844;2022-09-21T15:12:34;1.83;;;0.85;;
72569;SDS011;60594;50.204;8.844;2022-09-21T15:15:41;2.47;;;0.85;;
72569;SDS011;60594;50.204;8.844;2022-09-21T15:18:20;1.45;;;0.60;;
72569;SDS011;60594;50.204;8.844;2022-09-21T15:21:00;3.97;;;1.00;;
72569;SDS011;60594;50.204;8.844;2022-09-21T15:23:38;1.10;;;0.73;;
72569;SDS011;60594;50.204;8.844;2022-09-21T15:26:11;1.73;;;0.80;;
72569;SDS011;60594;50.204;8.844;2022-09-21T15:28:42;1.52;;;0.82;;
72569;SDS011;60594;50.204;8.844;2022-09-21T15:31:15;1.77;;;0.82;;
72569;SDS011;60594;50.204;8.844;2022-09-21T15:33:43;1.27;;;0.60;;
72569;SDS011;60594;50.204;8.844;2022-09-21T15:36:25;1.83;;;0.75;;
72569;SDS011;60594;50.204;8.844;2022-09-21T15:39:01;1.42;;;0.73;;
72569;SDS011;60594;50.204;8.844;2022-09-21T15:41:45;1.38;;;0.73;;
72569;SDS011;60594;50.204;8.844;2022-09-21T15:44:22;3.00;;;1.52;;
72569;SDS011;60594;50.204;8.844;2022-09-21T15:46:53;1.08;;;0.60;;
72569;SDS011;60594;50.204;8.844;2022-09-21T15:49:26;1.77;;;0.80;;
72569;SDS011;60594;50.204;8.844;2022-09-21T15:52:02;1.02;;;0.52;;
72569;SDS011;60594;50.204;8.844;2022-09-21T15:54:42;1.25;;;0.55;;
72569;SDS011;60594;50.204;8.844;2022-09-21T15:59:59;1.88;;;0.70;;
72569;SDS011;60594;50.204;8.844;2022-09-21T16:02:33;3.25;;;0.90;;
72569;SDS011;60594;50.204;8.844;2022-09-21T16:05:03;1.40;;;0.73;;
72569;SDS011;60594;50.204;8.844;2022-09-21T16:07:31;3.15;;;1.10;;
72569;SDS011;60594;50.204;8.844;2022-09-21T16:10:08;1.35;;;0.70;;
72569;SDS011;60594;50.204;8.844;2022-09-21T16:12:59;1.58;;;0.63;;
72569;SDS011;60594;50.204;8.844;2022-09-21T16:16:00;1.55;;;0.70;;
72569;SDS011;60594;50.204;8.844;2022-09-21T16:18:30;2.38;;;0.93;;
72569;SDS011;60594;50.204;8.844;2022-09-21T16:21:07;2.88;;;0.90;;
72569;SDS011;60594;50.204;8.844;2022-09-21T16:23:55;1.60;;;0.93;;
72569;SDS011;60594;50.204;8.844;2022-09-21T16:26:26;1.83;;;0.95;;
72569;SDS011;60594;50.204;8.844;2022-09-21T16:31:33;4.10;;;2.30;;
72569;SDS011;60594;50.204;8.844;2022-09-21T16:34:03;11.65;;;8.63;;
72569;SDS011;60594;50.204;8.844;2022-09-21T16:36:51;3.42;;;1.90;;
72569;SDS011;60594;50.204;8.844;2022-09-21T16:39:19;2.40;;;1.02;;
72569;SDS011;60594;50.204;8.844;2022-09-21T16:41:48;3.22;;;1.27;;
72569;SDS011;60594;50.204;8.844;2022-09-21T16:44:25;2.50;;;1.02;;
72569;SDS011;60594;50.204;8.844;2022-09-21T16:47:01;5.80;;;1.80;;
72569;SDS011;60594;50.204;8.844;2022-09-21T16:49:30;4.50;;;3.40;;
72569;SDS011;60594;50.204;8.844;2022-09-21T16:51:59;3.88;;;2.13;;
72569;SDS011;60594;50.204;8.844;2022-09-21T16:54:26;3.78;;;2.83;;
72569;SDS011;60594;50.204;8.844;2022-09-21T16:56:53;2.33;;;1.00;;
72569;SDS011;60594;50.204;8.844;2022-09-21T16:59:22;2.47;;;1.00;;
72569;SDS011;60594;50.204;8.844;2022-09-21T17:01:50;1.70;;;0.82;;
72569;SDS011;60594;50.204;8.844;2022-09-21T17:04:19;3.92;;;0.80;;
72569;SDS011;60594;50.204;8.844;2022-09-21T17:06:48;2.22;;;0.90;;
72569;SDS011;60594;50.204;8.844;2022-09-21T17:09:19;2.00;;;0.85;;
72569;SDS011;60594;50.204;8.844;2022-09-21T17:11:51;4.22;;;1.15;;
72569;SDS011;60594;50.204;8.844;2022-09-21T17:14:19;1.85;;;0.93;;
72569;SDS011;60594;50.204;8.844;2022-09-21T17:17:28;1.50;;;0.70;;
72569;SDS011;60594;50.204;8.844;2022-09-21T17:19:43;2.08;;;0.90;;
72569;SDS011;60594;50.204;8.844;2022-09-21T17:22:11;2.47;;;0.88;;
72569;SDS011;60594;50.204;8.844;2022-09-21T17:27:11;2.22;;;1.00;;
72569;SDS011;60594;50.204;8.844;2022-09-21T17:29:38;2.70;;;1.10;;
72569;SDS011;60594;50.204;8.844;2022-09-21T17:32:12;2.25;;;1.00;;
72569;SDS011;60594;50.204;8.844;2022-09-21T17:34:39;2.25;;;0.90;;
72569;SDS011;60594;50.204;8.844;2022-09-21T17:37:10;4.47;;;1.17;;
72569;SDS011;60594;50.204;8.844;2022-09-21T17:39:37;1.95;;;0.80;;
72569;SDS011;60594;50.204;8.844;2022-09-21T17:42:08;1.75;;;0.88;;
72569;SDS011;60594;50.204;8.844;2022-09-21T17:45:48;2.67;;;1.10;;
72569;SDS011;60594;50.204;8.844;2022-09-21T17:47:50;1.27;;;0.63;;
72569;SDS011;60594;50.204;8.844;2022-09-21T17:50:20;2.35;;;1.10;;
72569;SDS011;60594;50.204;8.844;2022-09-21T17:52:51;1.98;;;0.73;;
72569;SDS011;60594;50.204;8.844;2022-09-21T17:55:38;1.42;;;0.73;;
72569;SDS011;60594;50.204;8.844;2022-09-21T18:03:30;4.47;;;1.08;;
72569;SDS011;60594;50.204;8.844;2022-09-21T18:06:01;2.58;;;1.00;;
72569;SDS011;60594;50.204;8.844;2022-09-21T18:08:28;3.05;;;1.27;;
72569;SDS011;60594;50.204;8.844;2022-09-21T18:16:36;2.75;;;0.90;;
72569;SDS011;60594;50.204;8.844;2022-09-21T18:19:17;2.40;;;0.95;;
72569;SDS011;60594;50.204;8.844;2022-09-21T18:22:01;2.78;;;1.33;;
72569;SDS011;60594;50.204;8.844;2022-09-21T18:24:40;3.08;;;1.20;;
72569;SDS011;60594;50.204;8.844;2022-09-21T18:27:08;2.30;;;0.93;;
72569;SDS011;60594;50.204;8.844;2022-09-21T18:29:37;3.00;;;1.30;;
72569;SDS011;60594;50.204;8.844;2022-09-21T18:42:54;2.33;;;1.02;;
72569;SDS011;60594;50.204;8.844;2022-09-21T18:45:43;2.22;;;1.08;;
72569;SDS011;60594;50.204;8.844;2022-09-21T18:48:33;1.92;;;1.10;;
72569;SDS011;60594;50.204;8.844;2022-09-21T18:51:11;2.25;;;1.35;;
72569;SDS011;60594;50.204;8.844;2022-09-21T18:53:48;2.70;;;1.13;;
72569;SDS011;60594;50.204;8.844;2022-09-21T18:56:18;3.17;;;1.05;;
72569;SDS011;60594;50.204;8.844;2022-09-21T18:58:45;1.73;;;1.05;;